sensor_id;sensor_type;location;lat;lon;timestamp;P1;durP1;ratioP1;P2;durP2;ratioP2
66593;SDS011;53450;42.584;23.366;2022-09-09T00:00:23;12.32;;;8.57;;
66593;SDS011;53450;42.584;23.366;2022-09-09T00:03:05;17.83;;;9.52;;
66593;SDS011;53450;42.584;23.366;2022-09-09T00:05:38;16.83;;;8.60;;
66593;SDS011;53450;42.584;23.366;2022-09-09T00:08:19;12.98;;;9.50;;
66593;SDS011;53450;42.584;23.366;2022-09-09T00:10:50;12.77;;;9.00;;
66593;SDS011;53450;42.584;23.366;2022-09-09T00:13:52;15.55;;;9.05;;
66593;SDS011;53450;42.584;23.366;2022-09-09T00:16:27;16.15;;;10.02;;
66593;SDS011;53450;42.584;23.366;2022-09-09T00:22:03;15.05;;;10.00;;
66593;SDS011;53450;42.584;23.366;2022-09-09T00:30:23;13.20;;;9.05;;
66593;SDS011;53450;42.584;23.366;2022-09-09T00:32:55;13.05;;;9.43;;
66593;SDS011;53450;42.584;23.366;2022-09-09T00:35:37;15.73;;;9.50;;
66593;SDS011;53450;42.584;23.366;2022-09-09T00:38:27;20.25;;;10.13;;
66593;SDS011;53450;42.584;23.366;2022-09-09T00:41:00;14.10;;;8.95;;
66593;SDS011;53450;42.584;23.366;2022-09-09T00:43:30;11.20;;;8.77;;
66593;SDS011;53450;42.584;23.366;2022-09-09T00:49:04;15.48;;;9.95;;
66593;SDS011;53450;42.584;23.366;2022-09-09T00:51:44;15.77;;;8.82;;
66593;SDS011;53450;42.584;23.366;2022-09-09T00:54:26;14.43;;;9.02;;
66593;SDS011;53450;42.584;23.366;2022-09-09T01:02:16;13.38;;;9.45;;
66593;SDS011;53450;42.584;23.366;2022-09-09T01:11:00;14.65;;;9.27;;
66593;SDS011;53450;42.584;23.366;2022-09-09T01:13:29;15.88;;;9.98;;
66593;SDS011;53450;42.584;23.366;2022-09-09T01:16:06;18.58;;;9.30;;
66593;SDS011;53450;42.584;23.366;2022-09-09T01:18:39;12.38;;;9.13;;
66593;SDS011;53450;42.584;23.366;2022-09-09T01:26:52;17.95;;;9.40;;
66593;SDS011;53450;42.584;23.366;2022-09-09T01:29:24;12.68;;;8.77;;
66593;SDS011;53450;42.584;23.366;2022-09-09T01:34:21;21.48;;;8.38;;
66593;SDS011;53450;42.584;23.366;2022-09-09T01:39:46;12.90;;;8.77;;
66593;SDS011;53450;42.584;23.366;2022-09-09T01:42:15;11.15;;;9.05;;
66593;SDS011;53450;42.584;23.366;2022-09-09T01:44:42;15.13;;;9.88;;
66593;SDS011;53450;42.584;23.366;2022-09-09T01:47:34;13.38;;;9.13;;
66593;SDS011;53450;42.584;23.366;2022-09-09T01:50:17;12.77;;;9.05;;
66593;SDS011;53450;42.584;23.366;2022-09-09T01:52:44;10.40;;;8.73;;
66593;SDS011;53450;42.584;23.366;2022-09-09T01:55:16;11.48;;;9.45;;
66593;SDS011;53450;42.584;23.366;2022-09-09T01:57:56;17.60;;;10.27;;
66593;SDS011;53450;42.584;23.366;2022-09-09T02:00:28;14.02;;;8.48;;
66593;SDS011;53450;42.584;23.366;2022-09-09T02:09:04;11.05;;;8.27;;
66593;SDS011;53450;42.584;23.366;2022-09-09T02:11:32;12.23;;;8.93;;
66593;SDS011;53450;42.584;23.366;2022-09-09T02:14:18;15.02;;;9.07;;
66593;SDS011;53450;42.584;23.366;2022-09-09T02:16:51;14.48;;;9.25;;
66593;SDS011;53450;42.584;23.366;2022-09-09T02:19:39;12.30;;;9.00;;
66593;SDS011;53450;42.584;23.366;2022-09-09T02:22:22;10.27;;;8.73;;
66593;SDS011;53450;42.584;23.366;2022-09-09T02:24:51;13.77;;;9.45;;
66593;SDS011;53450;42.584;23.366;2022-09-09T02:27:46;24.13;;;8.95;;
66593;SDS011;53450;42.584;23.366;2022-09-09T02:30:14;16.27;;;9.35;;
66593;SDS011;53450;42.584;23.366;2022-09-09T02:32:46;13.80;;;8.75;;
66593;SDS011;53450;42.584;23.366;2022-09-09T02:35:20;14.43;;;10.13;;
66593;SDS011;53450;42.584;23.366;2022-09-09T02:37:49;16.45;;;9.63;;
66593;SDS011;53450;42.584;23.366;2022-09-09T02:40:17;13.55;;;9.88;;
66593;SDS011;53450;42.584;23.366;2022-09-09T02:42:47;10.80;;;9.35;;
66593;SDS011;53450;42.584;23.366;2022-09-09T02:45:41;14.85;;;9.07;;
66593;SDS011;53450;42.584;23.366;2022-09-09T02:48:51;13.18;;;9.30;;
66593;SDS011;53450;42.584;23.366;2022-09-09T02:51:27;13.18;;;8.88;;
66593;SDS011;53450;42.584;23.366;2022-09-09T02:54:15;11.32;;;10.13;;
66593;SDS011;53450;42.584;23.366;2022-09-09T02:56:49;13.95;;;9.60;;
66593;SDS011;53450;42.584;23.366;2022-09-09T02:59:22;19.65;;;10.63;;
66593;SDS011;53450;42.584;23.366;2022-09-09T03:01:51;17.27;;;9.85;;
66593;SDS011;53450;42.584;23.366;2022-09-09T03:04:18;11.68;;;9.02;;
66593;SDS011;53450;42.584;23.366;2022-09-09T03:06:44;13.52;;;9.38;;
66593;SDS011;53450;42.584;23.366;2022-09-09T03:09:17;15.73;;;9.60;;
66593;SDS011;53450;42.584;23.366;2022-09-09T03:11:43;19.77;;;9.75;;
66593;SDS011;53450;42.584;23.366;2022-09-09T03:14:08;14.98;;;9.60;;
66593;SDS011;53450;42.584;23.366;2022-09-09T03:17:01;18.65;;;10.27;;
66593;SDS011;53450;42.584;23.366;2022-09-09T03:19:52;12.38;;;9.82;;
66593;SDS011;53450;42.584;23.366;2022-09-09T03:22:20;17.88;;;10.95;;
66593;SDS011;53450;42.584;23.366;2022-09-09T03:24:47;15.55;;;10.95;;
66593;SDS011;53450;42.584;23.366;2022-09-09T03:27:13;15.55;;;10.32;;
66593;SDS011;53450;42.584;23.366;2022-09-09T03:29:43;13.18;;;10.65;;
66593;SDS011;53450;42.584;23.366;2022-09-09T03:32:13;20.42;;;11.05;;
66593;SDS011;53450;42.584;23.366;2022-09-09T03:34:43;15.35;;;10.48;;
66593;SDS011;53450;42.584;23.366;2022-09-09T03:37:12;16.38;;;10.02;;
66593;SDS011;53450;42.584;23.366;2022-09-09T03:39:38;13.88;;;10.18;;
66593;SDS011;53450;42.584;23.366;2022-09-09T03:42:04;19.70;;;10.80;;
66593;SDS011;53450;42.584;23.366;2022-09-09T03:44:55;13.90;;;10.52;;
66593;SDS011;53450;42.584;23.366;2022-09-09T03:47:24;14.07;;;10.20;;
66593;SDS011;53450;42.584;23.366;2022-09-09T03:49:55;14.38;;;10.63;;
66593;SDS011;53450;42.584;23.366;2022-09-09T03:52:20;18.50;;;10.77;;
66593;SDS011;53450;42.584;23.366;2022-09-09T03:54:51;20.05;;;10.82;;
66593;SDS011;53450;42.584;23.366;2022-09-09T03:57:18;16.52;;;10.48;;
66593;SDS011;53450;42.584;23.366;2022-09-09T03:59:44;14.20;;;10.45;;
66593;SDS011;53450;42.584;23.366;2022-09-09T04:02:10;25.20;;;11.00;;
66593;SDS011;53450;42.584;23.366;2022-09-09T04:04:36;16.13;;;11.38;;
66593;SDS011;53450;42.584;23.366;2022-09-09T04:07:02;18.60;;;11.63;;
66593;SDS011;53450;42.584;23.366;2022-09-09T04:09:27;14.77;;;11.48;;
66593;SDS011;53450;42.584;23.366;2022-09-09T04:11:53;15.82;;;11.00;;
66593;SDS011;53450;42.584;23.366;2022-09-09T04:14:20;16.92;;;11.73;;
66593;SDS011;53450;42.584;23.366;2022-09-09T04:17:11;13.88;;;10.50;;
66593;SDS011;53450;42.584;23.366;2022-09-09T04:20:02;20.65;;;11.27;;
66593;SDS011;53450;42.584;23.366;2022-09-09T04:22:28;17.38;;;11.40;;
66593;SDS011;53450;42.584;23.366;2022-09-09T04:24:54;19.50;;;11.35;;
66593;SDS011;53450;42.584;23.366;2022-09-09T04:27:20;39.33;;;11.95;;
66593;SDS011;53450;42.584;23.366;2022-09-09T04:29:46;21.98;;;11.43;;
66593;SDS011;53450;42.584;23.366;2022-09-09T04:32:12;14.77;;;10.82;;
66593;SDS011;53450;42.584;23.366;2022-09-09T04:34:38;134.93;;;16.75;;
66593;SDS011;53450;42.584;23.366;2022-09-09T04:37:04;22.33;;;11.98;;
66593;SDS011;53450;42.584;23.366;2022-09-09T04:39:30;27.33;;;11.20;;
66593;SDS011;53450;42.584;23.366;2022-09-09T04:41:58;26.23;;;11.27;;
66593;SDS011;53450;42.584;23.366;2022-09-09T04:44:24;24.52;;;11.38;;
66593;SDS011;53450;42.584;23.366;2022-09-09T04:46:50;25.35;;;11.27;;
66593;SDS011;53450;42.584;23.366;2022-09-09T04:49:16;27.98;;;11.30;;
66593;SDS011;53450;42.584;23.366;2022-09-09T04:51:42;25.33;;;11.25;;
66593;SDS011;53450;42.584;23.366;2022-09-09T04:54:08;22.58;;;11.23;;
66593;SDS011;53450;42.584;23.366;2022-09-09T04:56:37;18.83;;;12.48;;
66593;SDS011;53450;42.584;23.366;2022-09-09T04:59:03;23.45;;;13.00;;
66593;SDS011;53450;42.584;23.366;2022-09-09T05:01:41;15.88;;;11.70;;
66593;SDS011;53450;42.584;23.366;2022-09-09T05:04:07;22.55;;;12.40;;
66593;SDS011;53450;42.584;23.366;2022-09-09T05:06:34;15.75;;;11.45;;
66593;SDS011;53450;42.584;23.366;2022-09-09T05:09:01;30.23;;;13.05;;
66593;SDS011;53450;42.584;23.366;2022-09-09T05:11:29;24.00;;;12.45;;
66593;SDS011;53450;42.584;23.366;2022-09-09T05:14:16;19.20;;;11.32;;
66593;SDS011;53450;42.584;23.366;2022-09-09T05:16:44;21.13;;;11.10;;
66593;SDS011;53450;42.584;23.366;2022-09-09T05:19:10;24.98;;;11.57;;
66593;SDS011;53450;42.584;23.366;2022-09-09T05:21:45;14.30;;;10.30;;
66593;SDS011;53450;42.584;23.366;2022-09-09T05:24:13;160.13;;;15.63;;
66593;SDS011;53450;42.584;23.366;2022-09-09T05:26:40;14.10;;;10.02;;
66593;SDS011;53450;42.584;23.366;2022-09-09T05:29:06;15.50;;;9.32;;
66593;SDS011;53450;42.584;23.366;2022-09-09T05:31:33;13.68;;;9.18;;
66593;SDS011;53450;42.584;23.366;2022-09-09T05:34:03;18.02;;;9.73;;
66593;SDS011;53450;42.584;23.366;2022-09-09T05:36:28;18.67;;;8.93;;
66593;SDS011;53450;42.584;23.366;2022-09-09T05:38:55;13.20;;;8.45;;
66593;SDS011;53450;42.584;23.366;2022-09-09T05:41:22;12.68;;;8.20;;
66593;SDS011;53450;42.584;23.366;2022-09-09T05:43:49;9.60;;;7.72;;
66593;SDS011;53450;42.584;23.366;2022-09-09T05:46:16;11.15;;;8.77;;
66593;SDS011;53450;42.584;23.366;2022-09-09T05:48:46;12.60;;;7.65;;
66593;SDS011;53450;42.584;23.366;2022-09-09T05:51:14;10.18;;;7.50;;
66593;SDS011;53450;42.584;23.366;2022-09-09T05:53:43;10.43;;;9.13;;
66593;SDS011;53450;42.584;23.366;2022-09-09T05:56:15;14.18;;;7.72;;
66593;SDS011;53450;42.584;23.366;2022-09-09T05:58:47;11.30;;;7.85;;
66593;SDS011;53450;42.584;23.366;2022-09-09T06:01:14;9.10;;;7.40;;
66593;SDS011;53450;42.584;23.366;2022-09-09T06:03:41;7.63;;;6.63;;
66593;SDS011;53450;42.584;23.366;2022-09-09T06:06:34;7.20;;;6.07;;
66593;SDS011;53450;42.584;23.366;2022-09-09T06:09:26;17.35;;;11.50;;
66593;SDS011;53450;42.584;23.366;2022-09-09T06:12:18;6.97;;;6.28;;
66593;SDS011;53450;42.584;23.366;2022-09-09T06:14:45;9.10;;;6.38;;
66593;SDS011;53450;42.584;23.366;2022-09-09T06:17:11;10.57;;;6.28;;
66593;SDS011;53450;42.584;23.366;2022-09-09T06:19:36;7.38;;;5.90;;
66593;SDS011;53450;42.584;23.366;2022-09-09T06:22:02;14.38;;;5.90;;
66593;SDS011;53450;42.584;23.366;2022-09-09T06:24:31;10.40;;;6.18;;
66593;SDS011;53450;42.584;23.366;2022-09-09T06:26:59;9.75;;;6.10;;
66593;SDS011;53450;42.584;23.366;2022-09-09T06:29:28;9.00;;;6.55;;
66593;SDS011;53450;42.584;23.366;2022-09-09T06:31:54;12.65;;;6.20;;
66593;SDS011;53450;42.584;23.366;2022-09-09T06:34:22;12.68;;;5.72;;
66593;SDS011;53450;42.584;23.366;2022-09-09T06:36:52;11.07;;;5.82;;
66593;SDS011;53450;42.584;23.366;2022-09-09T06:39:17;8.30;;;5.78;;
66593;SDS011;53450;42.584;23.366;2022-09-09T06:41:44;6.15;;;5.22;;
66593;SDS011;53450;42.584;23.366;2022-09-09T06:44:29;9.27;;;5.55;;
66593;SDS011;53450;42.584;23.366;2022-09-09T06:46:57;9.18;;;5.60;;
66593;SDS011;53450;42.584;23.366;2022-09-09T06:49:23;8.30;;;5.28;;
66593;SDS011;53450;42.584;23.366;2022-09-09T06:51:49;8.90;;;5.60;;
66593;SDS011;53450;42.584;23.366;2022-09-09T06:54:15;8.90;;;6.10;;
66593;SDS011;53450;42.584;23.366;2022-09-09T06:56:43;8.35;;;5.93;;
66593;SDS011;53450;42.584;23.366;2022-09-09T06:59:17;10.48;;;6.25;;
66593;SDS011;53450;42.584;23.366;2022-09-09T07:01:43;9.93;;;5.40;;
66593;SDS011;53450;42.584;23.366;2022-09-09T07:04:12;7.63;;;5.75;;
66593;SDS011;53450;42.584;23.366;2022-09-09T07:06:41;9.85;;;6.38;;
66593;SDS011;53450;42.584;23.366;2022-09-09T07:09:11;9.77;;;6.32;;
66593;SDS011;53450;42.584;23.366;2022-09-09T07:11:45;19.02;;;7.20;;
66593;SDS011;53450;42.584;23.366;2022-09-09T07:14:14;10.25;;;6.30;;
66593;SDS011;53450;42.584;23.366;2022-09-09T07:16:43;9.88;;;6.22;;
66593;SDS011;53450;42.584;23.366;2022-09-09T07:19:10;11.82;;;7.30;;
66593;SDS011;53450;42.584;23.366;2022-09-09T07:21:37;24.00;;;7.88;;
66593;SDS011;53450;42.584;23.366;2022-09-09T07:24:03;15.20;;;7.72;;
66593;SDS011;53450;42.584;23.366;2022-09-09T07:26:32;15.13;;;7.15;;
66593;SDS011;53450;42.584;23.366;2022-09-09T07:29:00;10.05;;;6.82;;
66593;SDS011;53450;42.584;23.366;2022-09-09T07:31:26;15.02;;;7.30;;
66593;SDS011;53450;42.584;23.366;2022-09-09T07:33:56;13.35;;;6.60;;
66593;SDS011;53450;42.584;23.366;2022-09-09T07:36:23;13.07;;;5.85;;
66593;SDS011;53450;42.584;23.366;2022-09-09T07:38:53;6.78;;;5.97;;
66593;SDS011;53450;42.584;23.366;2022-09-09T07:41:28;27.23;;;13.13;;
66593;SDS011;53450;42.584;23.366;2022-09-09T07:44:03;49.38;;;28.05;;
66593;SDS011;53450;42.584;23.366;2022-09-09T07:46:30;11.38;;;8.50;;
66593;SDS011;53450;42.584;23.366;2022-09-09T07:48:56;8.43;;;6.80;;
66593;SDS011;53450;42.584;23.366;2022-09-09T07:51:27;9.60;;;6.40;;
66593;SDS011;53450;42.584;23.366;2022-09-09T07:53:56;16.75;;;6.80;;
66593;SDS011;53450;42.584;23.366;2022-09-09T07:56:25;15.63;;;7.22;;
66593;SDS011;53450;42.584;23.366;2022-09-09T07:58:53;14.32;;;6.22;;
66593;SDS011;53450;42.584;23.366;2022-09-09T08:01:24;13.18;;;8.38;;
66593;SDS011;53450;42.584;23.366;2022-09-09T08:03:59;15.02;;;7.80;;
66593;SDS011;53450;42.584;23.366;2022-09-09T08:06:28;20.48;;;6.80;;
66593;SDS011;53450;42.584;23.366;2022-09-09T08:08:55;13.32;;;6.32;;
66593;SDS011;53450;42.584;23.366;2022-09-09T08:11:23;11.63;;;6.78;;
66593;SDS011;53450;42.584;23.366;2022-09-09T08:13:50;12.15;;;6.07;;
66593;SDS011;53450;42.584;23.366;2022-09-09T08:16:18;11.55;;;5.93;;
66593;SDS011;53450;42.584;23.366;2022-09-09T08:18:49;10.57;;;6.50;;
66593;SDS011;53450;42.584;23.366;2022-09-09T08:21:21;10.27;;;5.72;;
66593;SDS011;53450;42.584;23.366;2022-09-09T08:23:56;8.15;;;6.10;;
66593;SDS011;53450;42.584;23.366;2022-09-09T08:26:25;28.85;;;7.20;;
66593;SDS011;53450;42.584;23.366;2022-09-09T08:28:54;9.02;;;6.32;;
66593;SDS011;53450;42.584;23.366;2022-09-09T08:31:26;14.63;;;6.57;;
66593;SDS011;53450;42.584;23.366;2022-09-09T08:33:54;10.82;;;7.15;;
66593;SDS011;53450;42.584;23.366;2022-09-09T08:36:22;11.30;;;5.95;;
66593;SDS011;53450;42.584;23.366;2022-09-09T08:38:49;17.05;;;6.20;;
66593;SDS011;53450;42.584;23.366;2022-09-09T08:43:43;11.02;;;5.55;;
66593;SDS011;53450;42.584;23.366;2022-09-09T08:46:18;7.03;;;5.75;;
66593;SDS011;53450;42.584;23.366;2022-09-09T08:48:54;7.63;;;5.65;;
66593;SDS011;53450;42.584;23.366;2022-09-09T08:51:27;12.85;;;6.32;;
66593;SDS011;53450;42.584;23.366;2022-09-09T08:53:56;8.48;;;5.40;;
66593;SDS011;53450;42.584;23.366;2022-09-09T08:56:26;11.75;;;6.05;;
66593;SDS011;53450;42.584;23.366;2022-09-09T08:58:59;9.88;;;6.07;;
66593;SDS011;53450;42.584;23.366;2022-09-09T09:04:34;27.08;;;8.70;;
66593;SDS011;53450;42.584;23.366;2022-09-09T09:12:56;8.82;;;6.78;;
66593;SDS011;53450;42.584;23.366;2022-09-09T09:15:23;21.05;;;5.95;;
66593;SDS011;53450;42.584;23.366;2022-09-09T09:17:53;43.65;;;7.50;;
66593;SDS011;53450;42.584;23.366;2022-09-09T09:20:26;13.25;;;5.80;;
66593;SDS011;53450;42.584;23.366;2022-09-09T09:23:12;12.73;;;5.60;;
66593;SDS011;53450;42.584;23.366;2022-09-09T09:25:46;14.55;;;5.88;;
66593;SDS011;53450;42.584;23.366;2022-09-09T09:28:17;12.25;;;6.30;;
66593;SDS011;53450;42.584;23.366;2022-09-09T09:31:04;16.42;;;6.15;;
66593;SDS011;53450;42.584;23.366;2022-09-09T09:33:44;10.13;;;5.70;;
66593;SDS011;53450;42.584;23.366;2022-09-09T09:36:17;10.93;;;6.13;;
66593;SDS011;53450;42.584;23.366;2022-09-09T09:38:57;11.23;;;6.10;;
66593;SDS011;53450;42.584;23.366;2022-09-09T09:41:34;9.40;;;5.35;;
66593;SDS011;53450;42.584;23.366;2022-09-09T09:44:04;17.63;;;6.38;;
66593;SDS011;53450;42.584;23.366;2022-09-09T09:46:31;13.13;;;6.30;;
66593;SDS011;53450;42.584;23.366;2022-09-09T09:49:08;13.55;;;6.57;;
66593;SDS011;53450;42.584;23.366;2022-09-09T09:51:36;14.67;;;5.80;;
66593;SDS011;53450;42.584;23.366;2022-09-09T09:56:44;20.50;;;7.25;;
66593;SDS011;53450;42.584;23.366;2022-09-09T09:59:20;10.18;;;6.20;;
66593;SDS011;53450;42.584;23.366;2022-09-09T10:01:49;12.95;;;6.55;;
66593;SDS011;53450;42.584;23.366;2022-09-09T10:04:17;15.48;;;6.82;;
66593;SDS011;53450;42.584;23.366;2022-09-09T10:06:50;17.42;;;6.60;;
66593;SDS011;53450;42.584;23.366;2022-09-09T10:15:27;29.83;;;6.88;;
66593;SDS011;53450;42.584;23.366;2022-09-09T10:21:20;15.77;;;5.88;;
66593;SDS011;53450;42.584;23.366;2022-09-09T10:35:19;13.35;;;6.03;;
66593;SDS011;53450;42.584;23.366;2022-09-09T10:38:24;13.55;;;5.85;;
66593;SDS011;53450;42.584;23.366;2022-09-09T10:41:19;10.70;;;5.75;;
66593;SDS011;53450;42.584;23.366;2022-09-09T10:55:00;22.95;;;7.57;;
66593;SDS011;53450;42.584;23.366;2022-09-09T10:58:09;12.20;;;6.07;;
66593;SDS011;53450;42.584;23.366;2022-09-09T11:00:59;8.63;;;6.45;;
66593;SDS011;53450;42.584;23.366;2022-09-09T11:03:32;23.25;;;7.57;;
66593;SDS011;53450;42.584;23.366;2022-09-09T11:08:32;10.05;;;6.45;;
66593;SDS011;53450;42.584;23.366;2022-09-09T11:19:26;11.40;;;6.22;;
66593;SDS011;53450;42.584;23.366;2022-09-09T11:22:27;9.50;;;6.20;;
66593;SDS011;53450;42.584;23.366;2022-09-09T11:25:21;26.95;;;9.23;;
66593;SDS011;53450;42.584;23.366;2022-09-09T11:39:12;13.05;;;6.15;;
66593;SDS011;53450;42.584;23.366;2022-09-09T11:41:48;16.83;;;6.85;;
66593;SDS011;53450;42.584;23.366;2022-09-09T11:44:24;16.02;;;6.38;;
66593;SDS011;53450;42.584;23.366;2022-09-09T11:46:55;17.23;;;7.38;;
66593;SDS011;53450;42.584;23.366;2022-09-09T11:52:18;24.48;;;6.57;;
66593;SDS011;53450;42.584;23.366;2022-09-09T11:54:48;18.88;;;7.00;;
66593;SDS011;53450;42.584;23.366;2022-09-09T11:57:25;24.55;;;6.20;;
66593;SDS011;53450;42.584;23.366;2022-09-09T11:59:59;26.23;;;7.10;;
66593;SDS011;53450;42.584;23.366;2022-09-09T12:02:26;19.83;;;6.80;;
66593;SDS011;53450;42.584;23.366;2022-09-09T12:12:50;20.45;;;6.18;;
66593;SDS011;53450;42.584;23.366;2022-09-09T12:15:17;12.25;;;6.55;;
66593;SDS011;53450;42.584;23.366;2022-09-09T12:17:49;27.20;;;8.45;;
66593;SDS011;53450;42.584;23.366;2022-09-09T12:20:18;9.98;;;6.22;;
66593;SDS011;53450;42.584;23.366;2022-09-09T12:28:19;33.10;;;8.23;;
66593;SDS011;53450;42.584;23.366;2022-09-09T12:31:07;17.35;;;6.57;;
66593;SDS011;53450;42.584;23.366;2022-09-09T12:33:42;16.50;;;6.60;;
66593;SDS011;53450;42.584;23.366;2022-09-09T12:36:21;11.15;;;6.43;;
66593;SDS011;53450;42.584;23.366;2022-09-09T12:38:49;15.25;;;6.57;;
66593;SDS011;53450;42.584;23.366;2022-09-09T12:43:46;16.48;;;6.95;;
66593;SDS011;53450;42.584;23.366;2022-09-09T12:46:16;22.52;;;7.00;;
66593;SDS011;53450;42.584;23.366;2022-09-09T12:49:24;16.17;;;6.25;;
66593;SDS011;53450;42.584;23.366;2022-09-09T12:51:51;20.13;;;6.88;;
66593;SDS011;53450;42.584;23.366;2022-09-09T12:54:17;27.30;;;6.60;;
66593;SDS011;53450;42.584;23.366;2022-09-09T12:56:47;14.10;;;6.57;;
66593;SDS011;53450;42.584;23.366;2022-09-09T12:59:24;17.53;;;7.30;;
66593;SDS011;53450;42.584;23.366;2022-09-09T13:01:55;12.02;;;6.80;;
66593;SDS011;53450;42.584;23.366;2022-09-09T13:04:22;29.93;;;14.77;;
66593;SDS011;53450;42.584;23.366;2022-09-09T13:06:47;21.92;;;10.32;;
66593;SDS011;53450;42.584;23.366;2022-09-09T13:09:39;8.85;;;5.60;;
66593;SDS011;53450;42.584;23.366;2022-09-09T13:12:30;11.57;;;5.38;;
66593;SDS011;53450;42.584;23.366;2022-09-09T13:14:56;10.95;;;6.40;;
66593;SDS011;53450;42.584;23.366;2022-09-09T13:17:25;12.25;;;5.97;;
66593;SDS011;53450;42.584;23.366;2022-09-09T13:19:54;10.60;;;6.47;;
66593;SDS011;53450;42.584;23.366;2022-09-09T13:22:23;13.82;;;6.40;;
66593;SDS011;53450;42.584;23.366;2022-09-09T13:25:06;12.70;;;5.90;;
66593;SDS011;53450;42.584;23.366;2022-09-09T13:27:36;19.00;;;6.65;;
66593;SDS011;53450;42.584;23.366;2022-09-09T13:35:45;15.25;;;6.88;;
66593;SDS011;53450;42.584;23.366;2022-09-09T13:38:16;15.45;;;6.40;;
66593;SDS011;53450;42.584;23.366;2022-09-09T13:43:30;15.75;;;6.97;;
66593;SDS011;53450;42.584;23.366;2022-09-09T13:46:01;19.85;;;6.13;;
66593;SDS011;53450;42.584;23.366;2022-09-09T13:48:29;21.35;;;7.93;;
66593;SDS011;53450;42.584;23.366;2022-09-09T13:51:01;31.92;;;12.15;;
66593;SDS011;53450;42.584;23.366;2022-09-09T13:53:31;29.17;;;8.55;;
66593;SDS011;53450;42.584;23.366;2022-09-09T13:55:58;17.85;;;7.07;;
66593;SDS011;53450;42.584;23.366;2022-09-09T13:58:24;20.77;;;9.18;;
66593;SDS011;53450;42.584;23.366;2022-09-09T14:00:50;26.17;;;9.60;;
66593;SDS011;53450;42.584;23.366;2022-09-09T14:03:19;13.55;;;7.28;;
66593;SDS011;53450;42.584;23.366;2022-09-09T14:05:45;14.88;;;7.90;;
66593;SDS011;53450;42.584;23.366;2022-09-09T14:08:15;26.70;;;9.48;;
66593;SDS011;53450;42.584;23.366;2022-09-09T14:10:46;17.67;;;7.15;;
66593;SDS011;53450;42.584;23.366;2022-09-09T14:13:12;20.20;;;7.32;;
66593;SDS011;53450;42.584;23.366;2022-09-09T14:15:38;24.65;;;7.15;;
66593;SDS011;53450;42.584;23.366;2022-09-09T14:18:03;20.80;;;6.82;;
66593;SDS011;53450;42.584;23.366;2022-09-09T14:20:29;17.92;;;6.88;;
66593;SDS011;53450;42.584;23.366;2022-09-09T14:22:55;20.58;;;6.63;;
66593;SDS011;53450;42.584;23.366;2022-09-09T14:25:22;27.95;;;6.45;;
66593;SDS011;53450;42.584;23.366;2022-09-09T14:27:48;24.52;;;6.45;;
66593;SDS011;53450;42.584;23.366;2022-09-09T14:30:14;22.55;;;6.22;;
66593;SDS011;53450;42.584;23.366;2022-09-09T14:32:39;12.10;;;6.38;;
66593;SDS011;53450;42.584;23.366;2022-09-09T14:35:05;11.27;;;5.88;;
66593;SDS011;53450;42.584;23.366;2022-09-09T14:37:31;8.68;;;5.97;;
66593;SDS011;53450;42.584;23.366;2022-09-09T14:39:57;17.73;;;6.43;;
66593;SDS011;53450;42.584;23.366;2022-09-09T14:42:22;11.95;;;6.35;;
66593;SDS011;53450;42.584;23.366;2022-09-09T14:44:48;24.48;;;6.60;;
66593;SDS011;53450;42.584;23.366;2022-09-09T14:47:14;13.05;;;6.20;;
66593;SDS011;53450;42.584;23.366;2022-09-09T14:49:39;13.68;;;5.97;;
66593;SDS011;53450;42.584;23.366;2022-09-09T14:52:05;12.00;;;6.70;;
66593;SDS011;53450;42.584;23.366;2022-09-09T14:54:31;15.13;;;6.32;;
66593;SDS011;53450;42.584;23.366;2022-09-09T14:56:57;18.45;;;6.55;;
66593;SDS011;53450;42.584;23.366;2022-09-09T14:59:48;14.68;;;6.63;;
66593;SDS011;53450;42.584;23.366;2022-09-09T15:02:15;18.27;;;7.88;;
66593;SDS011;53450;42.584;23.366;2022-09-09T15:04:41;13.32;;;6.13;;
66593;SDS011;53450;42.584;23.366;2022-09-09T15:07:11;13.95;;;6.28;;
66593;SDS011;53450;42.584;23.366;2022-09-09T15:09:37;12.82;;;7.10;;
66593;SDS011;53450;42.584;23.366;2022-09-09T15:12:02;20.05;;;9.20;;
66593;SDS011;53450;42.584;23.366;2022-09-09T15:14:29;19.05;;;9.35;;
66593;SDS011;53450;42.584;23.366;2022-09-09T15:16:55;21.08;;;8.43;;
66593;SDS011;53450;42.584;23.366;2022-09-09T15:19:21;16.50;;;9.15;;
66593;SDS011;53450;42.584;23.366;2022-09-09T15:21:47;20.58;;;8.30;;
66593;SDS011;53450;42.584;23.366;2022-09-09T15:24:12;19.77;;;7.30;;
66593;SDS011;53450;42.584;23.366;2022-09-09T15:26:38;18.45;;;8.85;;
66593;SDS011;53450;42.584;23.366;2022-09-09T15:29:05;19.00;;;8.73;;
66593;SDS011;53450;42.584;23.366;2022-09-09T15:31:32;43.42;;;17.05;;
66593;SDS011;53450;42.584;23.366;2022-09-09T15:34:02;22.65;;;10.85;;
66593;SDS011;53450;42.584;23.366;2022-09-09T15:38:55;25.98;;;10.75;;
66593;SDS011;53450;42.584;23.366;2022-09-09T15:41:21;22.67;;;9.88;;
66593;SDS011;53450;42.584;23.366;2022-09-09T15:43:49;21.48;;;8.40;;
66593;SDS011;53450;42.584;23.366;2022-09-09T15:48:41;12.80;;;6.82;;
66593;SDS011;53450;42.584;23.366;2022-09-09T15:51:07;21.23;;;6.93;;
66593;SDS011;53450;42.584;23.366;2022-09-09T15:53:34;14.75;;;7.05;;
66593;SDS011;53450;42.584;23.366;2022-09-09T15:56:00;33.25;;;13.70;;
66593;SDS011;53450;42.584;23.366;2022-09-09T15:58:50;23.05;;;9.38;;
66593;SDS011;53450;42.584;23.366;2022-09-09T16:01:17;22.70;;;8.55;;
66593;SDS011;53450;42.584;23.366;2022-09-09T16:03:44;34.78;;;20.33;;
66593;SDS011;53450;42.584;23.366;2022-09-09T16:06:12;22.10;;;10.40;;
66593;SDS011;53450;42.584;23.366;2022-09-09T16:08:39;29.95;;;9.88;;
66593;SDS011;53450;42.584;23.366;2022-09-09T16:11:13;11.60;;;8.65;;
66593;SDS011;53450;42.584;23.366;2022-09-09T16:13:42;19.00;;;8.85;;
66593;SDS011;53450;42.584;23.366;2022-09-09T16:16:09;49.03;;;14.38;;
66593;SDS011;53450;42.584;23.366;2022-09-09T16:18:38;37.95;;;14.80;;
66593;SDS011;53450;42.584;23.366;2022-09-09T16:21:06;20.85;;;8.60;;
66593;SDS011;53450;42.584;23.366;2022-09-09T16:23:33;19.67;;;9.20;;
66593;SDS011;53450;42.584;23.366;2022-09-09T16:26:00;17.38;;;8.73;;
66593;SDS011;53450;42.584;23.366;2022-09-09T16:28:26;20.98;;;9.40;;
66593;SDS011;53450;42.584;23.366;2022-09-09T16:30:53;30.10;;;12.35;;
66593;SDS011;53450;42.584;23.366;2022-09-09T16:33:19;22.55;;;11.82;;
66593;SDS011;53450;42.584;23.366;2022-09-09T16:35:45;30.70;;;12.02;;
66593;SDS011;53450;42.584;23.366;2022-09-09T16:38:11;31.58;;;13.32;;
66593;SDS011;53450;42.584;23.366;2022-09-09T16:40:37;39.38;;;12.55;;
66593;SDS011;53450;42.584;23.366;2022-09-09T16:43:03;37.42;;;17.10;;
66593;SDS011;53450;42.584;23.366;2022-09-09T16:45:30;25.30;;;11.35;;
66593;SDS011;53450;42.584;23.366;2022-09-09T16:47:57;35.33;;;13.38;;
66593;SDS011;53450;42.584;23.366;2022-09-09T16:50:24;29.33;;;13.27;;
66593;SDS011;53450;42.584;23.366;2022-09-09T16:52:51;38.03;;;13.93;;
66593;SDS011;53450;42.584;23.366;2022-09-09T16:55:41;30.77;;;13.45;;
66593;SDS011;53450;42.584;23.366;2022-09-09T16:58:07;28.98;;;12.75;;
66593;SDS011;53450;42.584;23.366;2022-09-09T17:00:35;31.05;;;12.35;;
66593;SDS011;53450;42.584;23.366;2022-09-09T17:03:01;35.42;;;12.57;;